sensor_id;sensor_type;location;lat;lon;timestamp;P1;durP1;ratioP1;P2;durP2;ratioP2
67193;SDS011;54121;53.508;49.422;2022-12-11T00:00:30;18.05;;;5.40;;
67193;SDS011;54121;53.508;49.422;2022-12-11T00:02:56;18.83;;;5.50;;
67193;SDS011;54121;53.508;49.422;2022-12-11T00:05:23;14.40;;;6.72;;
67193;SDS011;54121;53.508;49.422;2022-12-11T00:07:52;13.38;;;5.10;;
67193;SDS011;54121;53.508;49.422;2022-12-11T00:10:18;18.10;;;7.78;;
67193;SDS011;54121;53.508;49.422;2022-12-11T00:12:45;25.27;;;9.55;;
67193;SDS011;54121;53.508;49.422;2022-12-11T00:15:13;17.23;;;6.40;;
67193;SDS011;54121;53.508;49.422;2022-12-11T00:17:43;17.77;;;6.28;;
67193;SDS011;54121;53.508;49.422;2022-12-11T00:20:09;26.50;;;10.38;;
67193;SDS011;54121;53.508;49.422;2022-12-11T00:22:40;7.05;;;3.58;;
67193;SDS011;54121;53.508;49.422;2022-12-11T00:25:08;20.55;;;7.95;;
67193;SDS011;54121;53.508;49.422;2022-12-11T00:27:36;23.63;;;8.60;;
67193;SDS011;54121;53.508;49.422;2022-12-11T00:30:06;18.98;;;8.18;;
67193;SDS011;54121;53.508;49.422;2022-12-11T00:32:35;23.23;;;5.53;;
67193;SDS011;54121;53.508;49.422;2022-12-11T00:35:02;30.52;;;11.70;;
67193;SDS011;54121;53.508;49.422;2022-12-11T00:37:31;20.55;;;8.20;;
67193;SDS011;54121;53.508;49.422;2022-12-11T00:39:58;40.83;;;11.13;;
67193;SDS011;54121;53.508;49.422;2022-12-11T00:42:29;23.48;;;9.23;;
67193;SDS011;54121;53.508;49.422;2022-12-11T00:44:58;31.00;;;11.68;;
67193;SDS011;54121;53.508;49.422;2022-12-11T00:47:25;32.65;;;12.68;;
67193;SDS011;54121;53.508;49.422;2022-12-11T00:49:51;28.20;;;13.38;;
67193;SDS011;54121;53.508;49.422;2022-12-11T00:52:18;31.42;;;11.43;;
67193;SDS011;54121;53.508;49.422;2022-12-11T00:54:44;36.63;;;13.70;;
67193;SDS011;54121;53.508;49.422;2022-12-11T00:57:11;27.90;;;12.73;;
67193;SDS011;54121;53.508;49.422;2022-12-11T00:59:37;25.90;;;10.98;;
67193;SDS011;54121;53.508;49.422;2022-12-11T01:02:04;41.58;;;15.35;;
67193;SDS011;54121;53.508;49.422;2022-12-11T01:04:30;31.38;;;13.75;;
67193;SDS011;54121;53.508;49.422;2022-12-11T01:06:59;35.42;;;12.73;;
67193;SDS011;54121;53.508;49.422;2022-12-11T01:09:28;24.00;;;9.15;;
67193;SDS011;54121;53.508;49.422;2022-12-11T01:12:13;19.38;;;9.18;;
67193;SDS011;54121;53.508;49.422;2022-12-11T01:14:39;25.83;;;9.30;;
67193;SDS011;54121;53.508;49.422;2022-12-11T01:17:06;34.92;;;12.55;;
67193;SDS011;54121;53.508;49.422;2022-12-11T01:19:32;25.08;;;11.18;;
67193;SDS011;54121;53.508;49.422;2022-12-11T01:21:59;37.28;;;11.60;;
67193;SDS011;54121;53.508;49.422;2022-12-11T01:24:27;29.83;;;12.32;;
67193;SDS011;54121;53.508;49.422;2022-12-11T01:26:54;30.38;;;9.40;;
67193;SDS011;54121;53.508;49.422;2022-12-11T01:29:21;33.13;;;12.55;;
67193;SDS011;54121;53.508;49.422;2022-12-11T01:31:50;21.70;;;9.55;;
67193;SDS011;54121;53.508;49.422;2022-12-11T01:34:16;20.30;;;8.95;;
67193;SDS011;54121;53.508;49.422;2022-12-11T01:36:45;17.70;;;5.88;;
67193;SDS011;54121;53.508;49.422;2022-12-11T01:39:14;18.50;;;8.05;;
67193;SDS011;54121;53.508;49.422;2022-12-11T01:41:43;22.27;;;6.40;;
67193;SDS011;54121;53.508;49.422;2022-12-11T01:46:41;15.98;;;5.20;;
67193;SDS011;54121;53.508;49.422;2022-12-11T01:49:09;28.58;;;11.15;;
67193;SDS011;54121;53.508;49.422;2022-12-11T01:52:00;27.05;;;4.10;;
67193;SDS011;54121;53.508;49.422;2022-12-11T01:54:31;26.52;;;6.32;;
67193;SDS011;54121;53.508;49.422;2022-12-11T01:57:02;20.97;;;8.83;;
67193;SDS011;54121;53.508;49.422;2022-12-11T01:59:33;17.25;;;6.03;;
67193;SDS011;54121;53.508;49.422;2022-12-11T02:02:06;21.20;;;7.65;;
67193;SDS011;54121;53.508;49.422;2022-12-11T02:04:54;10.43;;;4.70;;
67193;SDS011;54121;53.508;49.422;2022-12-11T02:07:25;16.65;;;5.43;;
67193;SDS011;54121;53.508;49.422;2022-12-11T02:09:53;14.20;;;5.95;;
67193;SDS011;54121;53.508;49.422;2022-12-11T02:20:41;12.07;;;4.30;;
67193;SDS011;54121;53.508;49.422;2022-12-11T02:29:24;18.58;;;7.35;;
67193;SDS011;54121;53.508;49.422;2022-12-11T02:31:57;25.65;;;9.75;;
67193;SDS011;54121;53.508;49.422;2022-12-11T02:34:31;19.27;;;9.40;;
67193;SDS011;54121;53.508;49.422;2022-12-11T02:37:06;20.58;;;8.90;;
67193;SDS011;54121;53.508;49.422;2022-12-11T02:39:41;13.75;;;6.45;;
67193;SDS011;54121;53.508;49.422;2022-12-11T02:42:13;21.80;;;10.32;;
67193;SDS011;54121;53.508;49.422;2022-12-11T02:44:41;27.10;;;10.20;;
67193;SDS011;54121;53.508;49.422;2022-12-11T02:47:10;26.42;;;13.05;;
67193;SDS011;54121;53.508;49.422;2022-12-11T02:49:41;28.70;;;11.60;;
67193;SDS011;54121;53.508;49.422;2022-12-11T02:52:10;24.83;;;12.68;;
67193;SDS011;54121;53.508;49.422;2022-12-11T02:54:43;34.60;;;13.00;;
67193;SDS011;54121;53.508;49.422;2022-12-11T02:57:19;22.38;;;12.40;;
67193;SDS011;54121;53.508;49.422;2022-12-11T02:59:59;22.70;;;10.00;;
67193;SDS011;54121;53.508;49.422;2022-12-11T03:02:28;24.40;;;12.75;;
67193;SDS011;54121;53.508;49.422;2022-12-11T03:04:55;23.73;;;9.98;;
67193;SDS011;54121;53.508;49.422;2022-12-11T03:07:23;35.40;;;14.38;;
67193;SDS011;54121;53.508;49.422;2022-12-11T03:09:58;43.22;;;14.60;;
67193;SDS011;54121;53.508;49.422;2022-12-11T03:12:29;22.80;;;10.73;;
67193;SDS011;54121;53.508;49.422;2022-12-11T03:14:57;22.27;;;10.68;;
67193;SDS011;54121;53.508;49.422;2022-12-11T03:20:32;26.10;;;9.85;;
67193;SDS011;54121;53.508;49.422;2022-12-11T03:25:45;25.17;;;9.63;;
67193;SDS011;54121;53.508;49.422;2022-12-11T03:31:29;45.78;;;16.45;;
67193;SDS011;54121;53.508;49.422;2022-12-11T03:34:01;39.38;;;14.40;;
67193;SDS011;54121;53.508;49.422;2022-12-11T03:36:32;15.20;;;8.63;;
67193;SDS011;54121;53.508;49.422;2022-12-11T03:39:08;27.75;;;13.98;;
67193;SDS011;54121;53.508;49.422;2022-12-11T03:41:39;25.40;;;12.52;;
67193;SDS011;54121;53.508;49.422;2022-12-11T03:44:08;22.15;;;11.88;;
67193;SDS011;54121;53.508;49.422;2022-12-11T03:46:37;34.88;;;11.00;;
67193;SDS011;54121;53.508;49.422;2022-12-11T03:49:08;21.88;;;10.15;;
67193;SDS011;54121;53.508;49.422;2022-12-11T03:51:43;26.67;;;13.98;;
67193;SDS011;54121;53.508;49.422;2022-12-11T03:54:12;22.20;;;9.40;;
67193;SDS011;54121;53.508;49.422;2022-12-11T03:56:42;23.40;;;10.95;;
67193;SDS011;54121;53.508;49.422;2022-12-11T03:59:13;28.88;;;11.20;;
67193;SDS011;54121;53.508;49.422;2022-12-11T04:01:40;23.25;;;10.02;;
67193;SDS011;54121;53.508;49.422;2022-12-11T04:04:06;27.70;;;12.38;;
67193;SDS011;54121;53.508;49.422;2022-12-11T04:06:35;24.88;;;11.23;;
67193;SDS011;54121;53.508;49.422;2022-12-11T04:09:02;31.60;;;12.85;;
67193;SDS011;54121;53.508;49.422;2022-12-11T04:11:28;21.10;;;10.38;;
67193;SDS011;54121;53.508;49.422;2022-12-11T04:14:01;24.35;;;9.68;;
67193;SDS011;54121;53.508;49.422;2022-12-11T04:16:51;21.30;;;9.23;;
67193;SDS011;54121;53.508;49.422;2022-12-11T04:19:19;19.65;;;9.30;;
67193;SDS011;54121;53.508;49.422;2022-12-11T04:22:04;25.38;;;9.23;;
67193;SDS011;54121;53.508;49.422;2022-12-11T04:24:49;21.08;;;10.38;;
67193;SDS011;54121;53.508;49.422;2022-12-11T04:27:19;25.77;;;11.20;;
67193;SDS011;54121;53.508;49.422;2022-12-11T04:30:04;20.42;;;9.93;;
67193;SDS011;54121;53.508;49.422;2022-12-11T04:32:33;21.67;;;9.93;;
67193;SDS011;54121;53.508;49.422;2022-12-11T04:34:59;21.08;;;8.40;;
67193;SDS011;54121;53.508;49.422;2022-12-11T04:37:26;23.45;;;9.90;;
67193;SDS011;54121;53.508;49.422;2022-12-11T04:39:53;20.00;;;8.30;;
67193;SDS011;54121;53.508;49.422;2022-12-11T04:42:20;24.95;;;8.20;;
67193;SDS011;54121;53.508;49.422;2022-12-11T04:44:46;15.95;;;6.97;;
67193;SDS011;54121;53.508;49.422;2022-12-11T04:47:15;22.23;;;9.88;;
67193;SDS011;54121;53.508;49.422;2022-12-11T04:49:44;20.05;;;7.07;;
67193;SDS011;54121;53.508;49.422;2022-12-11T04:52:13;26.50;;;10.23;;
67193;SDS011;54121;53.508;49.422;2022-12-11T04:54:39;20.15;;;7.40;;
67193;SDS011;54121;53.508;49.422;2022-12-11T04:57:06;18.15;;;7.18;;
67193;SDS011;54121;53.508;49.422;2022-12-11T04:59:32;18.50;;;7.80;;
67193;SDS011;54121;53.508;49.422;2022-12-11T05:01:59;21.23;;;9.02;;
67193;SDS011;54121;53.508;49.422;2022-12-11T05:04:29;20.40;;;9.18;;
67193;SDS011;54121;53.508;49.422;2022-12-11T05:06:58;23.25;;;10.35;;
67193;SDS011;54121;53.508;49.422;2022-12-11T05:09:26;20.98;;;9.60;;
67193;SDS011;54121;53.508;49.422;2022-12-11T05:11:56;19.90;;;9.98;;
67193;SDS011;54121;53.508;49.422;2022-12-11T05:14:22;21.58;;;9.32;;
67193;SDS011;54121;53.508;49.422;2022-12-11T05:16:49;17.63;;;7.03;;
67193;SDS011;54121;53.508;49.422;2022-12-11T05:19:15;18.35;;;6.57;;
67193;SDS011;54121;53.508;49.422;2022-12-11T05:21:46;22.65;;;7.72;;
67193;SDS011;54121;53.508;49.422;2022-12-11T05:24:13;14.32;;;7.45;;
67193;SDS011;54121;53.508;49.422;2022-12-11T05:26:42;19.75;;;8.30;;
67193;SDS011;54121;53.508;49.422;2022-12-11T05:29:09;20.80;;;7.80;;
67193;SDS011;54121;53.508;49.422;2022-12-11T05:31:36;15.55;;;6.68;;
67193;SDS011;54121;53.508;49.422;2022-12-11T05:34:02;23.17;;;8.80;;
67193;SDS011;54121;53.508;49.422;2022-12-11T05:36:31;17.35;;;6.28;;
67193;SDS011;54121;53.508;49.422;2022-12-11T05:38:59;16.52;;;7.30;;
67193;SDS011;54121;53.508;49.422;2022-12-11T05:41:26;21.30;;;7.35;;
67193;SDS011;54121;53.508;49.422;2022-12-11T05:43:57;24.05;;;7.72;;
67193;SDS011;54121;53.508;49.422;2022-12-11T05:46:25;14.55;;;5.18;;
67193;SDS011;54121;53.508;49.422;2022-12-11T05:48:55;16.63;;;6.55;;
67193;SDS011;54121;53.508;49.422;2022-12-11T05:51:26;8.70;;;4.80;;
67193;SDS011;54121;53.508;49.422;2022-12-11T05:53:56;15.15;;;5.45;;
67193;SDS011;54121;53.508;49.422;2022-12-11T05:56:24;11.30;;;5.10;;
67193;SDS011;54121;53.508;49.422;2022-12-11T05:58:57;17.85;;;7.32;;
67193;SDS011;54121;53.508;49.422;2022-12-11T06:01:29;14.38;;;6.05;;
67193;SDS011;54121;53.508;49.422;2022-12-11T06:04:05;14.30;;;5.85;;
67193;SDS011;54121;53.508;49.422;2022-12-11T06:06:36;18.63;;;7.07;;
67193;SDS011;54121;53.508;49.422;2022-12-11T06:09:04;19.70;;;5.57;;
67193;SDS011;54121;53.508;49.422;2022-12-11T06:11:31;15.18;;;5.57;;
67193;SDS011;54121;53.508;49.422;2022-12-11T06:14:03;14.37;;;6.20;;
67193;SDS011;54121;53.508;49.422;2022-12-11T06:16:30;11.35;;;4.03;;
67193;SDS011;54121;53.508;49.422;2022-12-11T06:18:57;15.70;;;6.95;;
67193;SDS011;54121;53.508;49.422;2022-12-11T06:23:55;12.98;;;4.85;;
67193;SDS011;54121;53.508;49.422;2022-12-11T06:26:23;12.50;;;4.80;;
67193;SDS011;54121;53.508;49.422;2022-12-11T06:28:50;19.60;;;6.63;;
67193;SDS011;54121;53.508;49.422;2022-12-11T06:31:17;13.20;;;5.07;;
67193;SDS011;54121;53.508;49.422;2022-12-11T06:33:44;13.73;;;6.05;;
67193;SDS011;54121;53.508;49.422;2022-12-11T06:36:15;15.27;;;6.43;;
67193;SDS011;54121;53.508;49.422;2022-12-11T06:38:47;18.67;;;7.20;;
67193;SDS011;54121;53.508;49.422;2022-12-11T06:41:14;17.67;;;6.03;;
67193;SDS011;54121;53.508;49.422;2022-12-11T06:43:41;13.60;;;5.25;;
67193;SDS011;54121;53.508;49.422;2022-12-11T06:46:10;15.30;;;6.22;;
67193;SDS011;54121;53.508;49.422;2022-12-11T06:48:40;20.00;;;6.68;;
67193;SDS011;54121;53.508;49.422;2022-12-11T06:51:08;18.73;;;7.32;;
67193;SDS011;54121;53.508;49.422;2022-12-11T06:53:40;14.98;;;6.55;;
67193;SDS011;54121;53.508;49.422;2022-12-11T06:56:10;14.52;;;6.82;;
67193;SDS011;54121;53.508;49.422;2022-12-11T06:58:39;14.63;;;6.93;;
67193;SDS011;54121;53.508;49.422;2022-12-11T07:01:17;15.30;;;7.93;;
67193;SDS011;54121;53.508;49.422;2022-12-11T07:03:51;21.25;;;8.93;;
67193;SDS011;54121;53.508;49.422;2022-12-11T07:08:47;19.98;;;6.85;;
67193;SDS011;54121;53.508;49.422;2022-12-11T07:11:14;15.60;;;9.07;;
67193;SDS011;54121;53.508;49.422;2022-12-11T07:16:12;10.75;;;3.92;;
67193;SDS011;54121;53.508;49.422;2022-12-11T07:18:40;26.35;;;9.93;;
67193;SDS011;54121;53.508;49.422;2022-12-11T07:21:09;18.98;;;9.40;;
67193;SDS011;54121;53.508;49.422;2022-12-11T07:23:38;16.40;;;7.55;;
67193;SDS011;54121;53.508;49.422;2022-12-11T07:26:08;27.00;;;9.30;;
67193;SDS011;54121;53.508;49.422;2022-12-11T07:28:36;17.50;;;9.95;;
67193;SDS011;54121;53.508;49.422;2022-12-11T07:31:06;31.73;;;10.05;;
67193;SDS011;54121;53.508;49.422;2022-12-11T07:33:34;13.48;;;8.18;;
67193;SDS011;54121;53.508;49.422;2022-12-11T07:36:05;11.45;;;6.88;;
67193;SDS011;54121;53.508;49.422;2022-12-11T07:38:34;20.90;;;9.27;;
67193;SDS011;54121;53.508;49.422;2022-12-11T07:41:01;20.00;;;7.65;;
67193;SDS011;54121;53.508;49.422;2022-12-11T07:43:32;18.05;;;8.02;;
67193;SDS011;54121;53.508;49.422;2022-12-11T07:46:03;19.25;;;7.78;;
67193;SDS011;54121;53.508;49.422;2022-12-11T07:48:34;24.15;;;10.90;;
67193;SDS011;54121;53.508;49.422;2022-12-11T07:51:09;21.90;;;9.68;;
67193;SDS011;54121;53.508;49.422;2022-12-11T07:53:40;18.42;;;7.35;;
67193;SDS011;54121;53.508;49.422;2022-12-11T07:56:10;21.80;;;11.25;;
67193;SDS011;54121;53.508;49.422;2022-12-11T07:58:39;20.48;;;9.98;;
67193;SDS011;54121;53.508;49.422;2022-12-11T08:01:09;21.35;;;10.05;;
67193;SDS011;54121;53.508;49.422;2022-12-11T08:03:38;15.95;;;7.78;;
67193;SDS011;54121;53.508;49.422;2022-12-11T08:06:05;17.60;;;7.43;;
67193;SDS011;54121;53.508;49.422;2022-12-11T08:08:34;18.80;;;7.75;;
67193;SDS011;54121;53.508;49.422;2022-12-11T08:11:02;16.45;;;8.50;;
67193;SDS011;54121;53.508;49.422;2022-12-11T08:13:29;12.10;;;5.70;;
67193;SDS011;54121;53.508;49.422;2022-12-11T08:15:55;17.90;;;9.68;;
67193;SDS011;54121;53.508;49.422;2022-12-11T08:18:27;22.35;;;7.50;;
67193;SDS011;54121;53.508;49.422;2022-12-11T08:21:03;20.05;;;9.25;;
67193;SDS011;54121;53.508;49.422;2022-12-11T08:23:50;19.02;;;7.03;;
67193;SDS011;54121;53.508;49.422;2022-12-11T08:26:18;24.73;;;8.65;;
67193;SDS011;54121;53.508;49.422;2022-12-11T08:28:47;20.08;;;8.32;;
67193;SDS011;54121;53.508;49.422;2022-12-11T08:31:15;24.90;;;10.30;;
67193;SDS011;54121;53.508;49.422;2022-12-11T08:33:43;23.20;;;10.20;;
67193;SDS011;54121;53.508;49.422;2022-12-11T08:36:14;20.45;;;10.15;;
67193;SDS011;54121;53.508;49.422;2022-12-11T08:38:42;24.20;;;10.20;;
67193;SDS011;54121;53.508;49.422;2022-12-11T08:41:13;23.52;;;9.30;;
67193;SDS011;54121;53.508;49.422;2022-12-11T08:43:54;21.15;;;8.93;;
67193;SDS011;54121;53.508;49.422;2022-12-11T08:46:26;26.42;;;9.85;;
67193;SDS011;54121;53.508;49.422;2022-12-11T08:48:55;25.00;;;9.27;;
67193;SDS011;54121;53.508;49.422;2022-12-11T08:51:23;19.27;;;10.23;;
67193;SDS011;54121;53.508;49.422;2022-12-11T08:53:52;19.50;;;7.72;;
67193;SDS011;54121;53.508;49.422;2022-12-11T08:56:20;20.50;;;7.80;;
67193;SDS011;54121;53.508;49.422;2022-12-11T08:58:51;21.02;;;8.73;;
67193;SDS011;54121;53.508;49.422;2022-12-11T09:01:22;9.93;;;5.68;;
67193;SDS011;54121;53.508;49.422;2022-12-11T09:03:53;21.15;;;9.38;;
67193;SDS011;54121;53.508;49.422;2022-12-11T09:06:23;17.40;;;7.65;;
67193;SDS011;54121;53.508;49.422;2022-12-11T09:08:51;20.70;;;6.97;;
67193;SDS011;54121;53.508;49.422;2022-12-11T09:11:22;23.98;;;8.73;;
67193;SDS011;54121;53.508;49.422;2022-12-11T09:13:51;17.50;;;9.32;;
67193;SDS011;54121;53.508;49.422;2022-12-11T09:16:18;15.75;;;8.05;;
67193;SDS011;54121;53.508;49.422;2022-12-11T09:18:46;20.35;;;7.38;;
67193;SDS011;54121;53.508;49.422;2022-12-11T09:21:17;25.33;;;11.05;;
67193;SDS011;54121;53.508;49.422;2022-12-11T09:23:46;19.23;;;8.13;;
67193;SDS011;54121;53.508;49.422;2022-12-11T09:26:16;23.33;;;10.60;;
67193;SDS011;54121;53.508;49.422;2022-12-11T09:28:43;20.75;;;9.98;;
67193;SDS011;54121;53.508;49.422;2022-12-11T09:31:17;25.60;;;8.95;;
67193;SDS011;54121;53.508;49.422;2022-12-11T09:33:49;21.63;;;9.35;;
67193;SDS011;54121;53.508;49.422;2022-12-11T09:36:18;14.68;;;6.55;;
67193;SDS011;54121;53.508;49.422;2022-12-11T09:38:47;15.55;;;7.85;;
67193;SDS011;54121;53.508;49.422;2022-12-11T09:46:28;20.48;;;10.95;;
67193;SDS011;54121;53.508;49.422;2022-12-11T09:49:02;31.08;;;7.82;;
67193;SDS011;54121;53.508;49.422;2022-12-11T09:51:34;22.92;;;7.30;;
67193;SDS011;54121;53.508;49.422;2022-12-11T09:54:08;13.32;;;6.70;;
67193;SDS011;54121;53.508;49.422;2022-12-11T10:05:05;19.67;;;10.45;;
67193;SDS011;54121;53.508;49.422;2022-12-11T10:07:50;15.98;;;7.07;;
67193;SDS011;54121;53.508;49.422;2022-12-11T10:10:42;19.80;;;8.52;;
67193;SDS011;54121;53.508;49.422;2022-12-11T10:16:30;18.85;;;10.05;;
67193;SDS011;54121;53.508;49.422;2022-12-11T10:19:16;22.40;;;9.23;;
67193;SDS011;54121;53.508;49.422;2022-12-11T10:21:45;21.85;;;9.63;;
67193;SDS011;54121;53.508;49.422;2022-12-11T10:24:19;16.23;;;8.00;;
67193;SDS011;54121;53.508;49.422;2022-12-11T10:26:47;20.92;;;10.05;;
67193;SDS011;54121;53.508;49.422;2022-12-11T10:29:19;17.02;;;7.05;;
67193;SDS011;54121;53.508;49.422;2022-12-11T10:31:50;18.83;;;6.93;;
67193;SDS011;54121;53.508;49.422;2022-12-11T10:34:34;10.32;;;5.18;;
67193;SDS011;54121;53.508;49.422;2022-12-11T10:37:06;20.05;;;9.32;;
67193;SDS011;54121;53.508;49.422;2022-12-11T10:39:33;21.88;;;9.55;;
67193;SDS011;54121;53.508;49.422;2022-12-11T10:41:59;17.73;;;8.02;;
67193;SDS011;54121;53.508;49.422;2022-12-11T10:44:40;16.88;;;6.00;;
67193;SDS011;54121;53.508;49.422;2022-12-11T10:47:11;17.33;;;7.95;;
67193;SDS011;54121;53.508;49.422;2022-12-11T10:49:42;16.00;;;7.47;;
67193;SDS011;54121;53.508;49.422;2022-12-11T10:52:41;25.08;;;9.80;;
67193;SDS011;54121;53.508;49.422;2022-12-11T10:55:26;15.63;;;8.48;;
67193;SDS011;54121;53.508;49.422;2022-12-11T10:58:03;15.30;;;7.75;;
67193;SDS011;54121;53.508;49.422;2022-12-11T11:00:35;16.42;;;7.78;;
67193;SDS011;54121;53.508;49.422;2022-12-11T11:03:04;21.00;;;7.45;;
67193;SDS011;54121;53.508;49.422;2022-12-11T11:05:47;17.63;;;7.82;;
67193;SDS011;54121;53.508;49.422;2022-12-11T11:08:26;17.83;;;8.77;;
67193;SDS011;54121;53.508;49.422;2022-12-11T11:13:22;19.48;;;8.15;;
67193;SDS011;54121;53.508;49.422;2022-12-11T11:16:00;23.23;;;9.82;;
67193;SDS011;54121;53.508;49.422;2022-12-11T11:18:36;20.50;;;9.80;;
67193;SDS011;54121;53.508;49.422;2022-12-11T11:21:05;14.32;;;8.02;;
67193;SDS011;54121;53.508;49.422;2022-12-11T11:23:40;16.00;;;7.95;;
67193;SDS011;54121;53.508;49.422;2022-12-11T11:26:07;18.80;;;8.88;;
67193;SDS011;54121;53.508;49.422;2022-12-11T11:28:35;20.67;;;10.75;;
67193;SDS011;54121;53.508;49.422;2022-12-11T11:31:06;25.38;;;7.90;;
67193;SDS011;54121;53.508;49.422;2022-12-11T11:33:45;21.85;;;8.93;;
67193;SDS011;54121;53.508;49.422;2022-12-11T11:36:22;17.35;;;9.07;;
67193;SDS011;54121;53.508;49.422;2022-12-11T11:39:36;15.75;;;8.02;;
67193;SDS011;54121;53.508;49.422;2022-12-11T11:41:50;15.98;;;8.18;;
67193;SDS011;54121;53.508;49.422;2022-12-11T11:47:23;22.77;;;5.72;;
67193;SDS011;54121;53.508;49.422;2022-12-11T11:52:39;19.23;;;8.35;;
67193;SDS011;54121;53.508;49.422;2022-12-11T11:55:22;15.00;;;7.25;;
67193;SDS011;54121;53.508;49.422;2022-12-11T12:00:34;21.00;;;8.45;;
67193;SDS011;54121;53.508;49.422;2022-12-11T12:03:08;15.80;;;9.57;;
67193;SDS011;54121;53.508;49.422;2022-12-11T12:13:54;17.10;;;7.85;;
67193;SDS011;54121;53.508;49.422;2022-12-11T12:19:49;40.00;;;11.93;;
67193;SDS011;54121;53.508;49.422;2022-12-11T12:25:23;19.38;;;11.30;;
67193;SDS011;54121;53.508;49.422;2022-12-11T12:34:00;16.83;;;11.75;;
67193;SDS011;54121;53.508;49.422;2022-12-11T12:37:00;18.48;;;9.23;;
67193;SDS011;54121;53.508;49.422;2022-12-11T12:39:55;20.80;;;10.35;;
67193;SDS011;54121;53.508;49.422;2022-12-11T12:43:03;26.70;;;10.77;;
67193;SDS011;54121;53.508;49.422;2022-12-11T12:45:36;16.75;;;8.25;;
67193;SDS011;54121;53.508;49.422;2022-12-11T12:48:06;20.92;;;11.23;;
67193;SDS011;54121;53.508;49.422;2022-12-11T12:50:39;20.83;;;11.65;;
67193;SDS011;54121;53.508;49.422;2022-12-11T12:53:13;18.77;;;9.00;;
67193;SDS011;54121;53.508;49.422;2022-12-11T12:55:44;19.13;;;9.90;;
67193;SDS011;54121;53.508;49.422;2022-12-11T13:04:02;27.27;;;8.38;;
67193;SDS011;54121;53.508;49.422;2022-12-11T13:09:20;17.77;;;10.68;;
67193;SDS011;54121;53.508;49.422;2022-12-11T13:11:55;15.05;;;8.05;;
67193;SDS011;54121;53.508;49.422;2022-12-11T13:17:21;18.67;;;10.65;;
67193;SDS011;54121;53.508;49.422;2022-12-11T13:20:05;17.30;;;8.82;;
67193;SDS011;54121;53.508;49.422;2022-12-11T13:26:00;16.10;;;9.80;;
67193;SDS011;54121;53.508;49.422;2022-12-11T13:28:32;15.68;;;8.82;;
67193;SDS011;54121;53.508;49.422;2022-12-11T13:33:50;16.98;;;8.93;;
67193;SDS011;54121;53.508;49.422;2022-12-11T13:41:29;20.70;;;9.70;;
67193;SDS011;54121;53.508;49.422;2022-12-11T13:43:59;20.45;;;10.18;;
67193;SDS011;54121;53.508;49.422;2022-12-11T13:46:30;15.77;;;10.07;;
67193;SDS011;54121;53.508;49.422;2022-12-11T13:49:00;19.30;;;9.93;;
67193;SDS011;54121;53.508;49.422;2022-12-11T13:51:30;17.92;;;9.15;;
67193;SDS011;54121;53.508;49.422;2022-12-11T13:54:03;20.73;;;10.10;;
67193;SDS011;54121;53.508;49.422;2022-12-11T13:56:51;16.60;;;8.48;;
67193;SDS011;54121;53.508;49.422;2022-12-11T13:59:22;14.75;;;8.63;;
67193;SDS011;54121;53.508;49.422;2022-12-11T14:01:53;18.33;;;8.57;;
67193;SDS011;54121;53.508;49.422;2022-12-11T14:04:23;26.48;;;9.77;;
67193;SDS011;54121;53.508;49.422;2022-12-11T14:06:53;12.63;;;6.53;;
67193;SDS011;54121;53.508;49.422;2022-12-11T14:09:23;19.98;;;9.60;;
67193;SDS011;54121;53.508;49.422;2022-12-11T14:11:54;16.58;;;8.50;;
67193;SDS011;54121;53.508;49.422;2022-12-11T14:14:27;14.40;;;7.60;;
67193;SDS011;54121;53.508;49.422;2022-12-11T14:17:38;17.02;;;8.25;;
67193;SDS011;54121;53.508;49.422;2022-12-11T14:20:05;17.77;;;5.90;;
67193;SDS011;54121;53.508;49.422;2022-12-11T14:22:39;17.55;;;8.65;;
67193;SDS011;54121;53.508;49.422;2022-12-11T14:25:15;21.63;;;8.20;;
67193;SDS011;54121;53.508;49.422;2022-12-11T14:27:48;14.95;;;7.82;;
67193;SDS011;54121;53.508;49.422;2022-12-11T14:30:21;15.85;;;8.45;;
67193;SDS011;54121;53.508;49.422;2022-12-11T14:32:53;17.77;;;7.80;;
67193;SDS011;54121;53.508;49.422;2022-12-11T14:35:27;16.77;;;7.20;;
67193;SDS011;54121;53.508;49.422;2022-12-11T14:37:59;18.00;;;6.75;;
67193;SDS011;54121;53.508;49.422;2022-12-11T14:40:30;11.95;;;6.03;;
67193;SDS011;54121;53.508;49.422;2022-12-11T14:43:06;17.92;;;6.60;;
67193;SDS011;54121;53.508;49.422;2022-12-11T14:45:43;11.10;;;6.30;;
67193;SDS011;54121;53.508;49.422;2022-12-11T14:48:17;13.68;;;7.00;;
67193;SDS011;54121;53.508;49.422;2022-12-11T14:50:52;15.10;;;7.10;;
67193;SDS011;54121;53.508;49.422;2022-12-11T14:53:24;16.33;;;6.80;;
67193;SDS011;54121;53.508;49.422;2022-12-11T14:55:53;13.27;;;6.10;;
67193;SDS011;54121;53.508;49.422;2022-12-11T14:58:24;10.45;;;5.63;;
67193;SDS011;54121;53.508;49.422;2022-12-11T15:00:58;15.23;;;6.65;;
67193;SDS011;54121;53.508;49.422;2022-12-11T15:06:02;18.30;;;4.45;;
67193;SDS011;54121;53.508;49.422;2022-12-11T15:08:51;7.60;;;4.25;;
67193;SDS011;54121;53.508;49.422;2022-12-11T15:11:17;9.13;;;5.82;;
67193;SDS011;54121;53.508;49.422;2022-12-11T15:16:32;14.00;;;6.97;;
67193;SDS011;54121;53.508;49.422;2022-12-11T15:19:05;15.68;;;5.72;;
67193;SDS011;54121;53.508;49.422;2022-12-11T15:21:41;15.57;;;6.78;;
67193;SDS011;54121;53.508;49.422;2022-12-11T15:24:17;11.63;;;6.00;;
67193;SDS011;54121;53.508;49.422;2022-12-11T15:26:55;15.20;;;5.13;;
67193;SDS011;54121;53.508;49.422;2022-12-11T15:29:30;12.43;;;5.22;;
67193;SDS011;54121;53.508;49.422;2022-12-11T15:34:35;12.57;;;6.07;;
67193;SDS011;54121;53.508;49.422;2022-12-11T15:37:18;13.00;;;4.47;;
67193;SDS011;54121;53.508;49.422;2022-12-11T15:39:46;17.20;;;5.35;;
67193;SDS011;54121;53.508;49.422;2022-12-11T15:42:13;18.50;;;5.95;;
67193;SDS011;54121;53.508;49.422;2022-12-11T15:44:47;12.25;;;4.45;;
67193;SDS011;54121;53.508;49.422;2022-12-11T15:47:14;16.60;;;7.13;;
67193;SDS011;54121;53.508;49.422;2022-12-11T15:49:48;12.57;;;6.28;;
67193;SDS011;54121;53.508;49.422;2022-12-11T15:52:18;15.80;;;6.10;;
67193;SDS011;54121;53.508;49.422;2022-12-11T15:54:44;8.82;;;5.68;;
67193;SDS011;54121;53.508;49.422;2022-12-11T15:57:12;14.52;;;5.60;;
67193;SDS011;54121;53.508;49.422;2022-12-11T15:59:42;16.90;;;7.55;;
67193;SDS011;54121;53.508;49.422;2022-12-11T16:02:11;12.50;;;6.35;;
67193;SDS011;54121;53.508;49.422;2022-12-11T16:04:38;12.90;;;5.25;;
67193;SDS011;54121;53.508;49.422;2022-12-11T16:07:05;8.48;;;5.00;;
67193;SDS011;54121;53.508;49.422;2022-12-11T16:09:44;8.35;;;5.18;;
67193;SDS011;54121;53.508;49.422;2022-12-11T16:12:11;14.88;;;5.10;;
67193;SDS011;54121;53.508;49.422;2022-12-11T16:14:42;11.93;;;5.93;;
67193;SDS011;54121;53.508;49.422;2022-12-11T16:17:11;9.48;;;5.30;;
67193;SDS011;54121;53.508;49.422;2022-12-11T16:19:42;19.10;;;7.90;;
67193;SDS011;54121;53.508;49.422;2022-12-11T16:22:09;18.05;;;6.55;;
67193;SDS011;54121;53.508;49.422;2022-12-11T16:24:37;15.77;;;6.28;;
67193;SDS011;54121;53.508;49.422;2022-12-11T16:27:05;10.80;;;4.95;;
67193;SDS011;54121;53.508;49.422;2022-12-11T16:29:36;17.85;;;6.13;;
67193;SDS011;54121;53.508;49.422;2022-12-11T16:32:05;16.65;;;5.50;;
67193;SDS011;54121;53.508;49.422;2022-12-11T16:34:33;14.77;;;6.82;;